sensor_id;sensor_type;location;lat;lon;timestamp;temperature;humidity
45643;DHT22;31358;46.008;11.144;2023-08-31T00:02:06;16.10;99.90
45643;DHT22;31358;46.008;11.144;2023-08-31T00:04:32;16.00;99.90
45643;DHT22;31358;46.008;11.144;2023-08-31T00:06:58;15.90;99.90
45643;DHT22;31358;46.008;11.144;2023-08-31T00:09:24;15.80;99.90
45643;DHT22;31358;46.008;11.144;2023-08-31T00:11:50;15.70;99.90
45643;DHT22;31358;46.008;11.144;2023-08-31T00:14:16;15.80;99.90
45643;DHT22;31358;46.008;11.144;2023-08-31T00:16:43;15.80;99.90
45643;DHT22;31358;46.008;11.144;2023-08-31T00:19:11;15.70;99.90
45643;DHT22;31358;46.008;11.144;2023-08-31T00:21:37;15.80;99.90
45643;DHT22;31358;46.008;11.144;2023-08-31T00:24:03;15.90;99.90
45643;DHT22;31358;46.008;11.144;2023-08-31T00:26:29;15.80;99.90
45643;DHT22;31358;46.008;11.144;2023-08-31T00:28:56;15.80;99.90
45643;DHT22;31358;46.008;11.144;2023-08-31T00:31:22;15.90;99.90
45643;DHT22;31358;46.008;11.144;2023-08-31T00:33:48;15.90;99.90
45643;DHT22;31358;46.008;11.144;2023-08-31T00:36:14;16.00;99.90
45643;DHT22;31358;46.008;11.144;2023-08-31T00:38:40;16.00;99.90
45643;DHT22;31358;46.008;11.144;2023-08-31T00:41:05;16.00;99.90
45643;DHT22;31358;46.008;11.144;2023-08-31T00:43:31;15.80;99.90
45643;DHT22;31358;46.008;11.144;2023-08-31T00:45:58;15.80;99.90
45643;DHT22;31358;46.008;11.144;2023-08-31T00:48:24;15.70;99.90
45643;DHT22;31358;46.008;11.144;2023-08-31T00:50:50;15.60;99.90
45643;DHT22;31358;46.008;11.144;2023-08-31T00:53:17;15.70;99.90
45643;DHT22;31358;46.008;11.144;2023-08-31T00:55:46;15.60;99.90
45643;DHT22;31358;46.008;11.144;2023-08-31T00:58:13;15.60;99.90
45643;DHT22;31358;46.008;11.144;2023-08-31T01:12:20;15.50;99.90
45643;DHT22;31358;46.008;11.144;2023-08-31T01:14:50;15.60;99.90
45643;DHT22;31358;46.008;11.144;2023-08-31T01:17:20;15.60;99.90
45643;DHT22;31358;46.008;11.144;2023-08-31T01:19:51;15.70;99.90
45643;DHT22;31358;46.008;11.144;2023-08-31T01:25:23;15.60;99.90
45643;DHT22;31358;46.008;11.144;2023-08-31T01:27:50;15.60;99.90
45643;DHT22;31358;46.008;11.144;2023-08-31T01:30:17;15.60;99.90
45643;DHT22;31358;46.008;11.144;2023-08-31T01:32:47;15.60;99.90
45643;DHT22;31358;46.008;11.144;2023-08-31T01:35:16;15.60;99.90
45643;DHT22;31358;46.008;11.144;2023-08-31T01:37:58;15.60;99.90
45643;DHT22;31358;46.008;11.144;2023-08-31T01:40:35;15.60;99.90
45643;DHT22;31358;46.008;11.144;2023-08-31T01:43:04;15.50;99.90
45643;DHT22;31358;46.008;11.144;2023-08-31T01:45:31;15.50;99.90
45643;DHT22;31358;46.008;11.144;2023-08-31T01:47:58;15.50;99.90
45643;DHT22;31358;46.008;11.144;2023-08-31T01:50:25;15.40;99.90
45643;DHT22;31358;46.008;11.144;2023-08-31T01:52:51;15.50;99.90
45643;DHT22;31358;46.008;11.144;2023-08-31T01:55:18;15.50;99.90
45643;DHT22;31358;46.008;11.144;2023-08-31T01:57:44;15.40;99.90
45643;DHT22;31358;46.008;11.144;2023-08-31T02:00:10;15.40;99.90
45643;DHT22;31358;46.008;11.144;2023-08-31T02:02:36;15.50;99.90
45643;DHT22;31358;46.008;11.144;2023-08-31T02:05:02;15.40;99.90
45643;DHT22;31358;46.008;11.144;2023-08-31T02:07:30;15.30;99.90
45643;DHT22;31358;46.008;11.144;2023-08-31T02:09:55;15.20;99.90
45643;DHT22;31358;46.008;11.144;2023-08-31T02:12:21;15.30;99.90
45643;DHT22;31358;46.008;11.144;2023-08-31T02:14:47;15.30;99.90
45643;DHT22;31358;46.008;11.144;2023-08-31T02:17:12;15.30;99.90
45643;DHT22;31358;46.008;11.144;2023-08-31T02:19:38;15.10;99.90
45643;DHT22;31358;46.008;11.144;2023-08-31T02:22:04;15.20;99.90
45643;DHT22;31358;46.008;11.144;2023-08-31T02:24:29;15.30;99.90
45643;DHT22;31358;46.008;11.144;2023-08-31T02:26:56;15.20;99.90
45643;DHT22;31358;46.008;11.144;2023-08-31T02:29:21;15.10;99.90
45643;DHT22;31358;46.008;11.144;2023-08-31T02:31:47;15.10;99.90
45643;DHT22;31358;46.008;11.144;2023-08-31T02:34:13;15.00;99.90
45643;DHT22;31358;46.008;11.144;2023-08-31T02:36:39;14.90;99.90
45643;DHT22;31358;46.008;11.144;2023-08-31T02:39:05;14.90;99.90
45643;DHT22;31358;46.008;11.144;2023-08-31T02:41:31;15.00;99.90
45643;DHT22;31358;46.008;11.144;2023-08-31T02:43:57;15.10;99.90
45643;DHT22;31358;46.008;11.144;2023-08-31T02:46:23;15.20;99.90
45643;DHT22;31358;46.008;11.144;2023-08-31T02:48:50;15.30;99.90
45643;DHT22;31358;46.008;11.144;2023-08-31T02:51:15;15.30;99.90
45643;DHT22;31358;46.008;11.144;2023-08-31T02:53:41;15.40;99.90
45643;DHT22;31358;46.008;11.144;2023-08-31T02:56:07;15.50;99.90
45643;DHT22;31358;46.008;11.144;2023-08-31T02:58:33;15.50;99.90
45643;DHT22;31358;46.008;11.144;2023-08-31T03:01:09;15.50;99.90
45643;DHT22;31358;46.008;11.144;2023-08-31T03:03:37;15.60;99.90
45643;DHT22;31358;46.008;11.144;2023-08-31T03:06:03;15.60;99.90
45643;DHT22;31358;46.008;11.144;2023-08-31T03:08:29;15.70;99.90
45643;DHT22;31358;46.008;11.144;2023-08-31T03:10:56;15.70;99.90
45643;DHT22;31358;46.008;11.144;2023-08-31T03:13:22;15.70;99.90
45643;DHT22;31358;46.008;11.144;2023-08-31T03:15:48;15.70;99.90
45643;DHT22;31358;46.008;11.144;2023-08-31T03:18:13;15.50;99.90
45643;DHT22;31358;46.008;11.144;2023-08-31T03:20:39;15.50;99.90
45643;DHT22;31358;46.008;11.144;2023-08-31T03:23:05;15.40;99.90
45643;DHT22;31358;46.008;11.144;2023-08-31T03:25:30;15.40;99.90
45643;DHT22;31358;46.008;11.144;2023-08-31T03:27:56;15.40;99.90
45643;DHT22;31358;46.008;11.144;2023-08-31T03:30:21;15.40;99.90
45643;DHT22;31358;46.008;11.144;2023-08-31T03:32:47;15.50;99.90
45643;DHT22;31358;46.008;11.144;2023-08-31T03:35:13;15.50;99.90
45643;DHT22;31358;46.008;11.144;2023-08-31T03:37:38;15.50;99.90
45643;DHT22;31358;46.008;11.144;2023-08-31T03:40:05;15.50;99.90
45643;DHT22;31358;46.008;11.144;2023-08-31T03:42:33;15.60;99.90
45643;DHT22;31358;46.008;11.144;2023-08-31T03:44:59;15.50;99.90
45643;DHT22;31358;46.008;11.144;2023-08-31T03:47:25;15.50;99.90
45643;DHT22;31358;46.008;11.144;2023-08-31T03:49:50;15.40;99.90
45643;DHT22;31358;46.008;11.144;2023-08-31T03:52:16;15.40;99.90
45643;DHT22;31358;46.008;11.144;2023-08-31T03:54:41;15.40;99.90
45643;DHT22;31358;46.008;11.144;2023-08-31T03:57:07;15.40;99.90
45643;DHT22;31358;46.008;11.144;2023-08-31T03:59:33;15.50;99.90
45643;DHT22;31358;46.008;11.144;2023-08-31T04:01:58;15.50;99.90
45643;DHT22;31358;46.008;11.144;2023-08-31T04:04:24;15.50;99.90
45643;DHT22;31358;46.008;11.144;2023-08-31T04:06:50;15.40;99.90
45643;DHT22;31358;46.008;11.144;2023-08-31T04:09:16;15.30;99.90
45643;DHT22;31358;46.008;11.144;2023-08-31T04:11:42;15.30;99.90
45643;DHT22;31358;46.008;11.144;2023-08-31T04:14:08;15.30;99.90
45643;DHT22;31358;46.008;11.144;2023-08-31T04:16:33;15.20;99.90
45643;DHT22;31358;46.008;11.144;2023-08-31T04:18:59;15.20;99.90
45643;DHT22;31358;46.008;11.144;2023-08-31T04:21:25;15.20;99.90
45643;DHT22;31358;46.008;11.144;2023-08-31T04:23:50;15.20;99.90
45643;DHT22;31358;46.008;11.144;2023-08-31T04:26:16;15.30;99.90
45643;DHT22;31358;46.008;11.144;2023-08-31T04:28:43;15.20;99.90
45643;DHT22;31358;46.008;11.144;2023-08-31T04:31:09;15.20;99.90
45643;DHT22;31358;46.008;11.144;2023-08-31T04:33:36;15.20;99.90
45643;DHT22;31358;46.008;11.144;2023-08-31T04:36:02;15.20;99.90
45643;DHT22;31358;46.008;11.144;2023-08-31T04:38:29;15.10;99.90
45643;DHT22;31358;46.008;11.144;2023-08-31T04:40:58;15.00;99.90
45643;DHT22;31358;46.008;11.144;2023-08-31T04:43:24;15.00;99.90
45643;DHT22;31358;46.008;11.144;2023-08-31T04:45:51;15.00;99.90
45643;DHT22;31358;46.008;11.144;2023-08-31T04:48:17;15.00;99.90
45643;DHT22;31358;46.008;11.144;2023-08-31T04:50:43;15.00;99.90
45643;DHT22;31358;46.008;11.144;2023-08-31T04:53:08;15.00;99.90
45643;DHT22;31358;46.008;11.144;2023-08-31T04:55:34;14.90;99.90
45643;DHT22;31358;46.008;11.144;2023-08-31T04:58:00;15.00;99.90
45643;DHT22;31358;46.008;11.144;2023-08-31T05:00:25;14.90;99.90
45643;DHT22;31358;46.008;11.144;2023-08-31T05:02:51;15.00;99.90
45643;DHT22;31358;46.008;11.144;2023-08-31T05:05:17;15.00;99.90
45643;DHT22;31358;46.008;11.144;2023-08-31T05:07:44;15.00;99.90
45643;DHT22;31358;46.008;11.144;2023-08-31T05:10:09;15.00;99.90
45643;DHT22;31358;46.008;11.144;2023-08-31T05:12:35;14.90;99.90
45643;DHT22;31358;46.008;11.144;2023-08-31T05:15:01;14.90;99.90
45643;DHT22;31358;46.008;11.144;2023-08-31T05:17:26;15.00;99.90
45643;DHT22;31358;46.008;11.144;2023-08-31T05:19:52;15.00;99.90
45643;DHT22;31358;46.008;11.144;2023-08-31T05:22:18;15.20;99.90
45643;DHT22;31358;46.008;11.144;2023-08-31T05:24:43;15.40;99.90
45643;DHT22;31358;46.008;11.144;2023-08-31T05:27:09;15.50;99.90
45643;DHT22;31358;46.008;11.144;2023-08-31T05:29:34;15.40;99.90
45643;DHT22;31358;46.008;11.144;2023-08-31T05:32:00;15.40;99.90
45643;DHT22;31358;46.008;11.144;2023-08-31T05:34:26;15.40;99.90
45643;DHT22;31358;46.008;11.144;2023-08-31T05:36:51;15.50;99.90
45643;DHT22;31358;46.008;11.144;2023-08-31T05:39:17;15.50;99.90
45643;DHT22;31358;46.008;11.144;2023-08-31T05:41:43;15.70;99.90
45643;DHT22;31358;46.008;11.144;2023-08-31T05:44:10;15.70;99.90
45643;DHT22;31358;46.008;11.144;2023-08-31T05:46:36;15.60;99.90
45643;DHT22;31358;46.008;11.144;2023-08-31T05:49:03;15.70;99.90
45643;DHT22;31358;46.008;11.144;2023-08-31T05:51:29;15.70;99.90
45643;DHT22;31358;46.008;11.144;2023-08-31T05:53:55;15.70;99.90
45643;DHT22;31358;46.008;11.144;2023-08-31T05:56:20;15.80;99.90
45643;DHT22;31358;46.008;11.144;2023-08-31T05:58:46;15.80;99.90
45643;DHT22;31358;46.008;11.144;2023-08-31T06:01:13;15.90;99.90
45643;DHT22;31358;46.008;11.144;2023-08-31T06:03:38;15.90;99.90
45643;DHT22;31358;46.008;11.144;2023-08-31T06:06:04;15.90;99.90
45643;DHT22;31358;46.008;11.144;2023-08-31T06:08:30;15.80;99.90
45643;DHT22;31358;46.008;11.144;2023-08-31T06:10:56;15.80;99.90
45643;DHT22;31358;46.008;11.144;2023-08-31T06:13:22;15.80;99.90
45643;DHT22;31358;46.008;11.144;2023-08-31T06:15:47;15.90;99.90
45643;DHT22;31358;46.008;11.144;2023-08-31T06:18:13;16.00;99.90
45643;DHT22;31358;46.008;11.144;2023-08-31T06:20:39;16.10;99.90
45643;DHT22;31358;46.008;11.144;2023-08-31T06:23:05;16.20;99.90
45643;DHT22;31358;46.008;11.144;2023-08-31T06:25:31;16.30;99.90
45643;DHT22;31358;46.008;11.144;2023-08-31T06:27:57;16.40;99.90
45643;DHT22;31358;46.008;11.144;2023-08-31T06:30:23;16.50;99.90
45643;DHT22;31358;46.008;11.144;2023-08-31T06:32:50;16.50;99.90
45643;DHT22;31358;46.008;11.144;2023-08-31T06:35:16;16.60;99.90
45643;DHT22;31358;46.008;11.144;2023-08-31T06:37:42;16.60;99.90
45643;DHT22;31358;46.008;11.144;2023-08-31T06:40:09;16.60;99.90
45643;DHT22;31358;46.008;11.144;2023-08-31T06:42:36;16.70;99.90
45643;DHT22;31358;46.008;11.144;2023-08-31T06:45:03;17.10;99.90
45643;DHT22;31358;46.008;11.144;2023-08-31T06:47:29;17.50;99.90
45643;DHT22;31358;46.008;11.144;2023-08-31T06:49:55;18.70;99.90
45643;DHT22;31358;46.008;11.144;2023-08-31T06:52:20;19.60;99.90
45643;DHT22;31358;46.008;11.144;2023-08-31T06:54:46;19.90;99.90
45643;DHT22;31358;46.008;11.144;2023-08-31T06:57:11;20.40;99.90
45643;DHT22;31358;46.008;11.144;2023-08-31T06:59:37;20.30;99.90
45643;DHT22;31358;46.008;11.144;2023-08-31T07:02:03;20.40;99.90
45643;DHT22;31358;46.008;11.144;2023-08-31T07:04:28;21.20;99.90
45643;DHT22;31358;46.008;11.144;2023-08-31T07:06:54;21.70;99.90
45643;DHT22;31358;46.008;11.144;2023-08-31T07:09:20;21.10;99.90
45643;DHT22;31358;46.008;11.144;2023-08-31T07:11:45;20.40;99.90
45643;DHT22;31358;46.008;11.144;2023-08-31T07:14:11;20.10;99.90
45643;DHT22;31358;46.008;11.144;2023-08-31T07:16:37;20.90;99.90
45643;DHT22;31358;46.008;11.144;2023-08-31T07:19:02;19.90;99.90
45643;DHT22;31358;46.008;11.144;2023-08-31T07:21:28;19.20;99.90
45643;DHT22;31358;46.008;11.144;2023-08-31T07:23:54;19.30;99.90
45643;DHT22;31358;46.008;11.144;2023-08-31T07:26:20;19.70;99.90
45643;DHT22;31358;46.008;11.144;2023-08-31T07:28:47;19.40;99.90
45643;DHT22;31358;46.008;11.144;2023-08-31T07:31:13;19.00;99.90
45643;DHT22;31358;46.008;11.144;2023-08-31T07:33:38;18.70;99.90
45643;DHT22;31358;46.008;11.144;2023-08-31T07:36:05;18.30;99.90
45643;DHT22;31358;46.008;11.144;2023-08-31T07:38:32;18.10;99.90
45643;DHT22;31358;46.008;11.144;2023-08-31T07:40:58;18.10;99.90
45643;DHT22;31358;46.008;11.144;2023-08-31T07:43:25;18.10;99.90
45643;DHT22;31358;46.008;11.144;2023-08-31T07:45:51;18.20;99.90
45643;DHT22;31358;46.008;11.144;2023-08-31T07:48:17;18.20;99.90
45643;DHT22;31358;46.008;11.144;2023-08-31T07:50:43;18.10;99.90
45643;DHT22;31358;46.008;11.144;2023-08-31T07:53:08;18.20;99.90
45643;DHT22;31358;46.008;11.144;2023-08-31T07:55:34;18.10;99.90
45643;DHT22;31358;46.008;11.144;2023-08-31T07:58:01;18.30;99.90
45643;DHT22;31358;46.008;11.144;2023-08-31T08:00:26;18.30;99.90
45643;DHT22;31358;46.008;11.144;2023-08-31T08:02:52;18.20;99.90
45643;DHT22;31358;46.008;11.144;2023-08-31T08:05:18;18.20;99.90
45643;DHT22;31358;46.008;11.144;2023-08-31T08:07:43;18.20;99.90
45643;DHT22;31358;46.008;11.144;2023-08-31T08:10:11;18.20;99.90
45643;DHT22;31358;46.008;11.144;2023-08-31T08:12:37;18.20;99.90
45643;DHT22;31358;46.008;11.144;2023-08-31T08:15:05;18.30;99.90
45643;DHT22;31358;46.008;11.144;2023-08-31T08:17:31;18.30;99.90
45643;DHT22;31358;46.008;11.144;2023-08-31T08:19:57;18.30;99.90
45643;DHT22;31358;46.008;11.144;2023-08-31T08:22:24;18.40;99.90
45643;DHT22;31358;46.008;11.144;2023-08-31T08:24:50;18.70;99.90
45643;DHT22;31358;46.008;11.144;2023-08-31T08:27:16;18.80;99.90
45643;DHT22;31358;46.008;11.144;2023-08-31T08:29:44;18.90;99.90
45643;DHT22;31358;46.008;11.144;2023-08-31T08:32:09;18.80;99.90
45643;DHT22;31358;46.008;11.144;2023-08-31T08:34:35;18.80;99.90
45643;DHT22;31358;46.008;11.144;2023-08-31T08:37:01;18.70;99.90
45643;DHT22;31358;46.008;11.144;2023-08-31T08:39:26;18.80;99.90
45643;DHT22;31358;46.008;11.144;2023-08-31T08:41:54;18.80;99.90
45643;DHT22;31358;46.008;11.144;2023-08-31T08:44:25;18.80;99.90
45643;DHT22;31358;46.008;11.144;2023-08-31T08:46:51;19.00;99.90
45643;DHT22;31358;46.008;11.144;2023-08-31T08:49:19;20.30;99.90
45643;DHT22;31358;46.008;11.144;2023-08-31T08:51:47;23.40;99.90
45643;DHT22;31358;46.008;11.144;2023-08-31T08:54:14;22.00;99.90
45643;DHT22;31358;46.008;11.144;2023-08-31T08:56:39;23.30;99.70
45643;DHT22;31358;46.008;11.144;2023-08-31T08:59:05;24.90;98.10
45643;DHT22;31358;46.008;11.144;2023-08-31T09:01:33;24.30;96.60
45643;DHT22;31358;46.008;11.144;2023-08-31T09:04:00;21.60;99.40
45643;DHT22;31358;46.008;11.144;2023-08-31T09:06:27;22.20;99.90
45643;DHT22;31358;46.008;11.144;2023-08-31T09:08:56;25.00;98.20
45643;DHT22;31358;46.008;11.144;2023-08-31T09:11:23;25.90;96.70
45643;DHT22;31358;46.008;11.144;2023-08-31T09:13:49;25.80;97.10
45643;DHT22;31358;46.008;11.144;2023-08-31T09:16:29;26.20;96.20
45643;DHT22;31358;46.008;11.144;2023-08-31T09:18:56;27.10;96.50
45643;DHT22;31358;46.008;11.144;2023-08-31T09:21:23;27.40;94.80
45643;DHT22;31358;46.008;11.144;2023-08-31T09:23:59;27.40;95.20
45643;DHT22;31358;46.008;11.144;2023-08-31T09:26:25;26.70;95.00
45643;DHT22;31358;46.008;11.144;2023-08-31T09:28:52;25.80;95.00
45643;DHT22;31358;46.008;11.144;2023-08-31T09:31:18;23.90;96.30
45643;DHT22;31358;46.008;11.144;2023-08-31T09:33:53;22.90;97.50
45643;DHT22;31358;46.008;11.144;2023-08-31T09:36:20;21.90;98.70
45643;DHT22;31358;46.008;11.144;2023-08-31T09:38:46;21.90;98.80
45643;DHT22;31358;46.008;11.144;2023-08-31T09:41:12;21.70;98.50
45643;DHT22;31358;46.008;11.144;2023-08-31T09:43:38;21.80;99.10
45643;DHT22;31358;46.008;11.144;2023-08-31T09:46:04;21.80;98.20
45643;DHT22;31358;46.008;11.144;2023-08-31T09:48:31;21.70;98.00
45643;DHT22;31358;46.008;11.144;2023-08-31T09:50:57;21.50;98.90
45643;DHT22;31358;46.008;11.144;2023-08-31T09:53:29;21.00;98.80
45643;DHT22;31358;46.008;11.144;2023-08-31T09:55:56;21.10;99.30
45643;DHT22;31358;46.008;11.144;2023-08-31T09:58:22;21.30;98.40
45643;DHT22;31358;46.008;11.144;2023-08-31T10:00:49;21.40;99.00
45643;DHT22;31358;46.008;11.144;2023-08-31T10:03:16;21.60;98.30
45643;DHT22;31358;46.008;11.144;2023-08-31T10:05:46;21.60;97.80
45643;DHT22;31358;46.008;11.144;2023-08-31T10:08:12;21.70;98.60
45643;DHT22;31358;46.008;11.144;2023-08-31T10:10:40;21.50;97.90
45643;DHT22;31358;46.008;11.144;2023-08-31T10:13:06;21.60;98.60
45643;DHT22;31358;46.008;11.144;2023-08-31T10:15:32;21.80;97.50
45643;DHT22;31358;46.008;11.144;2023-08-31T10:18:05;21.90;97.20
45643;DHT22;31358;46.008;11.144;2023-08-31T10:20:32;21.90;96.50
45643;DHT22;31358;46.008;11.144;2023-08-31T10:23:03;22.10;97.10
45643;DHT22;31358;46.008;11.144;2023-08-31T10:28:27;22.30;97.50
45643;DHT22;31358;46.008;11.144;2023-08-31T10:31:03;22.50;97.10
45643;DHT22;31358;46.008;11.144;2023-08-31T10:33:44;22.50;96.80
45643;DHT22;31358;46.008;11.144;2023-08-31T10:36:14;22.60;96.60
45643;DHT22;31358;46.008;11.144;2023-08-31T10:38:42;22.70;96.10
45643;DHT22;31358;46.008;11.144;2023-08-31T10:46:30;23.30;95.80
45643;DHT22;31358;46.008;11.144;2023-08-31T10:49:01;23.40;95.70
45643;DHT22;31358;46.008;11.144;2023-08-31T10:51:32;23.50;96.40
45643;DHT22;31358;46.008;11.144;2023-08-31T10:54:30;23.60;96.30
45643;DHT22;31358;46.008;11.144;2023-08-31T10:59:51;23.50;95.60
45643;DHT22;31358;46.008;11.144;2023-08-31T11:02:44;23.30;95.90
45643;DHT22;31358;46.008;11.144;2023-08-31T11:05:18;23.30;96.10
45643;DHT22;31358;46.008;11.144;2023-08-31T11:07:45;23.40;96.30
45643;DHT22;31358;46.008;11.144;2023-08-31T11:10:23;23.40;96.20
45643;DHT22;31358;46.008;11.144;2023-08-31T11:12:50;23.90;96.00
45643;DHT22;31358;46.008;11.144;2023-08-31T11:15:20;24.20;95.40
45643;DHT22;31358;46.008;11.144;2023-08-31T11:17:46;24.30;96.30
45643;DHT22;31358;46.008;11.144;2023-08-31T11:20:15;24.10;96.00
45643;DHT22;31358;46.008;11.144;2023-08-31T11:22:43;24.30;95.90
45643;DHT22;31358;46.008;11.144;2023-08-31T11:25:12;24.50;96.20
45643;DHT22;31358;46.008;11.144;2023-08-31T11:27:38;24.50;96.20
45643;DHT22;31358;46.008;11.144;2023-08-31T11:30:17;24.60;94.60
45643;DHT22;31358;46.008;11.144;2023-08-31T11:32:50;24.40;94.70
45643;DHT22;31358;46.008;11.144;2023-08-31T11:35:16;24.00;94.30
45643;DHT22;31358;46.008;11.144;2023-08-31T11:37:49;24.00;95.00
45643;DHT22;31358;46.008;11.144;2023-08-31T11:40:15;24.30;95.80
45643;DHT22;31358;46.008;11.144;2023-08-31T11:42:41;24.60;95.40
45643;DHT22;31358;46.008;11.144;2023-08-31T11:45:07;24.70;94.70
45643;DHT22;31358;46.008;11.144;2023-08-31T11:47:34;24.90;95.00
45643;DHT22;31358;46.008;11.144;2023-08-31T11:50:00;24.70;94.80
45643;DHT22;31358;46.008;11.144;2023-08-31T11:52:30;24.80;95.00
45643;DHT22;31358;46.008;11.144;2023-08-31T11:54:56;24.90;96.00
45643;DHT22;31358;46.008;11.144;2023-08-31T11:57:26;24.90;96.00
45643;DHT22;31358;46.008;11.144;2023-08-31T11:59:52;25.10;94.70
45643;DHT22;31358;46.008;11.144;2023-08-31T12:02:20;24.90;95.80
45643;DHT22;31358;46.008;11.144;2023-08-31T12:04:46;24.90;95.60
45643;DHT22;31358;46.008;11.144;2023-08-31T12:07:17;24.90;96.30
45643;DHT22;31358;46.008;11.144;2023-08-31T12:09:43;25.00;95.90
45643;DHT22;31358;46.008;11.144;2023-08-31T12:12:10;25.40;96.30
45643;DHT22;31358;46.008;11.144;2023-08-31T12:14:38;25.50;95.70
45643;DHT22;31358;46.008;11.144;2023-08-31T12:17:08;25.40;95.20
45643;DHT22;31358;46.008;11.144;2023-08-31T12:19:36;25.40;95.30
45643;DHT22;31358;46.008;11.144;2023-08-31T12:22:03;25.40;94.90
45643;DHT22;31358;46.008;11.144;2023-08-31T12:24:29;25.20;95.50
45643;DHT22;31358;46.008;11.144;2023-08-31T12:26:55;25.10;96.50
45643;DHT22;31358;46.008;11.144;2023-08-31T12:29:21;25.20;96.30
45643;DHT22;31358;46.008;11.144;2023-08-31T12:31:48;25.10;95.60
45643;DHT22;31358;46.008;11.144;2023-08-31T12:34:14;25.30;96.30
45643;DHT22;31358;46.008;11.144;2023-08-31T12:36:40;25.50;95.40
45643;DHT22;31358;46.008;11.144;2023-08-31T12:39:09;25.50;94.80
45643;DHT22;31358;46.008;11.144;2023-08-31T12:41:36;25.70;95.30
45643;DHT22;31358;46.008;11.144;2023-08-31T12:44:05;25.70;94.80
45643;DHT22;31358;46.008;11.144;2023-08-31T12:46:32;25.80;94.70
45643;DHT22;31358;46.008;11.144;2023-08-31T12:48:58;25.30;94.50
45643;DHT22;31358;46.008;11.144;2023-08-31T12:51:24;25.00;94.50
45643;DHT22;31358;46.008;11.144;2023-08-31T12:53:49;25.00;94.80
45643;DHT22;31358;46.008;11.144;2023-08-31T12:56:15;25.30;95.40
45643;DHT22;31358;46.008;11.144;2023-08-31T12:58:48;25.40;95.10
45643;DHT22;31358;46.008;11.144;2023-08-31T13:01:14;25.40;94.80
45643;DHT22;31358;46.008;11.144;2023-08-31T13:03:40;25.10;94.60
45643;DHT22;31358;46.008;11.144;2023-08-31T13:06:05;25.00;95.30
45643;DHT22;31358;46.008;11.144;2023-08-31T13:08:31;24.80;95.70
45643;DHT22;31358;46.008;11.144;2023-08-31T13:10:57;24.70;95.60
45643;DHT22;31358;46.008;11.144;2023-08-31T13:13:23;24.80;96.00
45643;DHT22;31358;46.008;11.144;2023-08-31T13:15:49;24.90;96.30
45643;DHT22;31358;46.008;11.144;2023-08-31T13:18:15;24.70;95.20
45643;DHT22;31358;46.008;11.144;2023-08-31T13:20:49;24.70;94.00
45643;DHT22;31358;46.008;11.144;2023-08-31T13:23:14;24.80;94.10
45643;DHT22;31358;46.008;11.144;2023-08-31T13:25:40;25.20;95.50
45643;DHT22;31358;46.008;11.144;2023-08-31T13:28:06;25.20;92.90
45643;DHT22;31358;46.008;11.144;2023-08-31T13:30:31;25.20;93.20
45643;DHT22;31358;46.008;11.144;2023-08-31T13:32:57;25.30;92.40
45643;DHT22;31358;46.008;11.144;2023-08-31T13:35:23;25.30;93.10
45643;DHT22;31358;46.008;11.144;2023-08-31T13:37:48;25.20;93.50
45643;DHT22;31358;46.008;11.144;2023-08-31T13:40:14;25.00;93.10
45643;DHT22;31358;46.008;11.144;2023-08-31T13:42:59;25.10;93.20
45643;DHT22;31358;46.008;11.144;2023-08-31T13:45:29;25.20;93.20
45643;DHT22;31358;46.008;11.144;2023-08-31T13:47:56;25.30;93.50
45643;DHT22;31358;46.008;11.144;2023-08-31T13:50:22;25.50;93.80
45643;DHT22;31358;46.008;11.144;2023-08-31T13:52:48;25.60;93.30
45643;DHT22;31358;46.008;11.144;2023-08-31T13:55:13;25.30;92.60
45643;DHT22;31358;46.008;11.144;2023-08-31T13:57:42;25.20;93.30
45643;DHT22;31358;46.008;11.144;2023-08-31T14:00:09;25.10;92.80
45643;DHT22;31358;46.008;11.144;2023-08-31T14:02:35;25.00;92.70
45643;DHT22;31358;46.008;11.144;2023-08-31T14:05:02;25.00;92.70
45643;DHT22;31358;46.008;11.144;2023-08-31T14:07:29;24.90;93.50
45643;DHT22;31358;46.008;11.144;2023-08-31T14:09:54;25.20;93.70
45643;DHT22;31358;46.008;11.144;2023-08-31T14:12:20;25.00;92.30
45643;DHT22;31358;46.008;11.144;2023-08-31T14:14:47;25.00;92.40
45643;DHT22;31358;46.008;11.144;2023-08-31T14:17:14;25.30;92.00
45643;DHT22;31358;46.008;11.144;2023-08-31T14:19:39;25.40;92.70
45643;DHT22;31358;46.008;11.144;2023-08-31T14:22:05;25.30;91.90
45643;DHT22;31358;46.008;11.144;2023-08-31T14:24:31;25.10;91.60
45643;DHT22;31358;46.008;11.144;2023-08-31T14:26:57;24.90;92.40
45643;DHT22;31358;46.008;11.144;2023-08-31T14:29:23;24.90;92.90
45643;DHT22;31358;46.008;11.144;2023-08-31T14:31:49;25.00;93.60
45643;DHT22;31358;46.008;11.144;2023-08-31T14:34:14;25.20;92.20
45643;DHT22;31358;46.008;11.144;2023-08-31T14:36:40;25.10;92.60
45643;DHT22;31358;46.008;11.144;2023-08-31T14:39:06;24.90;93.00
45643;DHT22;31358;46.008;11.144;2023-08-31T14:41:32;24.70;92.70
45643;DHT22;31358;46.008;11.144;2023-08-31T14:43:57;24.50;93.20
45643;DHT22;31358;46.008;11.144;2023-08-31T14:46:23;24.50;93.50
45643;DHT22;31358;46.008;11.144;2023-08-31T14:48:50;24.40;92.80
45643;DHT22;31358;46.008;11.144;2023-08-31T14:51:16;24.40;92.50
45643;DHT22;31358;46.008;11.144;2023-08-31T14:53:42;24.40;92.90
45643;DHT22;31358;46.008;11.144;2023-08-31T14:56:08;24.60;94.10
45643;DHT22;31358;46.008;11.144;2023-08-31T14:58:34;24.50;94.20
45643;DHT22;31358;46.008;11.144;2023-08-31T15:00:59;24.30;94.10
45643;DHT22;31358;46.008;11.144;2023-08-31T15:03:25;24.30;94.50
45643;DHT22;31358;46.008;11.144;2023-08-31T15:05:52;24.10;93.70
45643;DHT22;31358;46.008;11.144;2023-08-31T15:08:17;24.20;92.80
45643;DHT22;31358;46.008;11.144;2023-08-31T15:10:43;24.30;93.20
45643;DHT22;31358;46.008;11.144;2023-08-31T15:13:09;24.40;93.50
45643;DHT22;31358;46.008;11.144;2023-08-31T15:15:34;24.30;93.60
45643;DHT22;31358;46.008;11.144;2023-08-31T15:18:00;24.00;93.60
45643;DHT22;31358;46.008;11.144;2023-08-31T15:20:26;24.00;93.40
45643;DHT22;31358;46.008;11.144;2023-08-31T15:22:53;24.30;94.00
45643;DHT22;31358;46.008;11.144;2023-08-31T15:25:19;24.40;93.40
45643;DHT22;31358;46.008;11.144;2023-08-31T15:27:45;24.30;93.40
45643;DHT22;31358;46.008;11.144;2023-08-31T15:30:11;24.30;93.50
45643;DHT22;31358;46.008;11.144;2023-08-31T15:32:37;24.30;93.60
45643;DHT22;31358;46.008;11.144;2023-08-31T15:35:04;24.30;94.10
45643;DHT22;31358;46.008;11.144;2023-08-31T15:37:30;24.40;94.20
45643;DHT22;31358;46.008;11.144;2023-08-31T15:39:56;24.50;93.70